Time;durP1;ratioP1;P1;durP2;ratioP2;P2;SDS_P1;SDS_P2;PMS_P1;PMS_P2;Temp;Humidity;BMP_temperature;BMP_pressure;BME280_temperature;BME280_humidity;BME280_pressure;Samples;Min_cycle;Max_cycle;Signal;HPM_P1;HPM_P2
2023/05/13 00:00:41;;;;;;;10.95;9.85;;;9.20;99.90;;;;;;5093998;28;20067;-55
2023/05/13 00:03:07;;;;;;;11.20;9.82;;;9.10;99.90;;;;;;5094214;28;20032;-55
2023/05/13 00:05:33;;;;;;;11.45;10.35;;;9.20;99.90;;;;;;5093616;28;20473;-58
2023/05/13 00:08:05;;;;;;;11.45;9.88;;;9.10;99.90;;;;;;5094145;28;20024;-54
2023/05/13 00:10:34;;;;;;;11.68;10.15;;;9.20;99.90;;;;;;5093576;28;20027;-56
2023/05/13 00:13:00;;;;;;;11.68;10.52;;;9.20;99.90;;;;;;5073952;28;20051;-55
2023/05/13 00:15:27;;;;;;;11.50;10.15;;;9.20;99.90;;;;;;5083680;28;20032;-52
2023/05/13 00:17:53;;;;;;;12.35;10.75;;;9.10;99.90;;;;;;5093965;28;20071;-54
2023/05/13 00:20:19;;;;;;;12.40;10.52;;;9.20;99.90;;;;;;5075608;28;20066;-56
2023/05/13 00:22:44;;;;;;;10.45;9.50;;;9.10;99.90;;;;;;5093767;28;20468;-57
2023/05/13 00:25:10;;;;;;;11.25;9.70;;;9.00;99.90;;;;;;5093641;28;20016;-52
2023/05/13 00:27:36;;;;;;;11.80;10.70;;;9.10;99.90;;;;;;5093512;28;20032;-57
2023/05/13 00:30:04;;;;;;;12.02;10.02;;;9.10;99.90;;;;;;5093806;28;20146;-55
2023/05/13 00:32:30;;;;;;;10.00;9.07;;;9.00;99.90;;;;;;5093587;28;20043;-54
2023/05/13 00:34:56;;;;;;;13.13;10.43;;;9.00;99.90;;;;;;5093439;28;20024;-57
2023/05/13 00:37:21;;;;;;;13.30;10.27;;;9.10;99.90;;;;;;5093616;28;20039;-57
2023/05/13 00:39:47;;;;;;;12.38;11.18;;;9.10;99.90;;;;;;5093274;28;20139;-57
2023/05/13 00:42:13;;;;;;;13.90;9.63;;;9.10;99.90;;;;;;5075346;28;20031;-53
2023/05/13 00:44:39;;;;;;;10.82;9.77;;;9.10;99.90;;;;;;5093497;28;20713;-56
2023/05/13 00:47:05;;;;;;;10.95;9.85;;;9.10;99.90;;;;;;5093774;28;20020;-56
2023/05/13 00:49:34;;;;;;;11.77;9.65;;;9.00;99.90;;;;;;5093248;28;20020;-56
2023/05/13 00:52:01;;;;;;;11.25;9.98;;;9.10;99.90;;;;;;5093254;28;20016;-56
2023/05/13 00:54:27;;;;;;;11.57;10.32;;;9.10;99.90;;;;;;5093338;28;20382;-56
2023/05/13 00:56:55;;;;;;;18.13;10.80;;;9.10;99.90;;;;;;5092918;28;20020;-57
2023/05/13 00:59:23;;;;;;;12.88;11.32;;;9.10;99.90;;;;;;5093357;28;20042;-56
2023/05/13 01:02:20;;;;;;;11.80;10.68;;;9.10;99.90;;;;;;5093267;28;20185;-58
2023/05/13 01:04:55;;;;;;;12.02;10.77;;;9.00;99.90;;;;;;5065727;28;20024;-55
2023/05/13 01:07:29;;;;;;;11.48;10.27;;;9.00;99.90;;;;;;5093147;28;20020;-57
2023/05/13 01:10:07;;;;;;;11.32;9.90;;;9.10;99.90;;;;;;5092360;28;20073;-57
2023/05/13 01:12:35;;;;;;;14.48;11.07;;;9.00;99.90;;;;;;5092772;28;20035;-55
2023/05/13 01:15:07;;;;;;;11.70;10.50;;;9.00;99.90;;;;;;5089256;28;20115;-54
2023/05/13 01:17:41;;;;;;;12.52;11.30;;;9.00;99.90;;;;;;5092909;28;20208;-55
2023/05/13 01:20:08;;;;;;;13.20;11.80;;;9.00;99.90;;;;;;5092878;28;20028;-57
2023/05/13 01:22:34;;;;;;;12.18;10.88;;;9.00;99.90;;;;;;5092432;28;20035;-56
2023/05/13 01:25:00;;;;;;;12.73;11.27;;;9.00;99.90;;;;;;5092765;28;20114;-55
2023/05/13 01:27:26;;;;;;;10.98;9.98;;;9.00;99.90;;;;;;5074308;28;20024;-56
2023/05/13 01:29:53;;;;;;;12.70;11.50;;;9.00;99.90;;;;;;5092801;28;20070;-56
2023/05/13 01:32:20;;;;;;;11.15;10.05;;;9.00;99.90;;;;;;5093116;28;20044;-57
2023/05/13 01:34:46;;;;;;;11.38;10.27;;;9.00;99.90;;;;;;5092239;28;20016;-56
2023/05/13 01:37:12;;;;;;;11.88;10.68;;;9.10;99.90;;;;;;5092681;28;20024;-57
2023/05/13 01:39:38;;;;;;;12.55;10.32;;;9.00;99.90;;;;;;5091928;28;20522;-57
2023/05/13 01:42:04;;;;;;;11.07;9.98;;;9.10;99.90;;;;;;5092325;28;20028;-57
2023/05/13 01:44:30;;;;;;;11.35;10.25;;;9.10;99.90;;;;;;5092102;28;20024;-53
2023/05/13 01:47:30;;;;;;;10.40;9.40;;;9.00;99.90;;;;;;5092503;28;20056;-58
2023/05/13 01:49:55;;;;;;;10.88;8.90;;;8.90;99.50;;;;;;5090793;28;20051;-57
2023/05/13 01:52:21;;;;;;;10.00;9.00;;;8.90;99.90;;;;;;5081935;28;20433;-56
2023/05/13 01:54:46;;;;;;;10.63;9.57;;;8.90;99.90;;;;;;5092111;28;20118;-55
2023/05/13 01:57:12;;;;;;;9.85;8.95;;;8.90;99.60;;;;;;5091214;28;20430;-54
2023/05/13 01:59:38;;;;;;;10.63;9.63;;;8.90;99.30;;;;;;5091171;28;20062;-53
2023/05/13 02:02:04;;;;;;;11.57;9.20;;;8.90;99.80;;;;;;5090569;28;20032;-54
2023/05/13 02:04:30;;;;;;;10.77;9.70;;;8.90;99.30;;;;;;5091310;28;20104;-56
2023/05/13 02:06:55;;;;;;;10.85;9.85;;;8.90;98.80;;;;;;5073707;28;20095;-56
2023/05/13 02:09:21;;;;;;;14.45;10.35;;;8.90;99.50;;;;;;5091756;28;20024;-57
2023/05/13 02:11:47;;;;;;;13.43;10.48;;;8.90;99.40;;;;;;5091652;28;20067;-58
2023/05/13 02:14:13;;;;;;;11.90;10.65;;;9.00;99.90;;;;;;5091632;28;20020;-57
2023/05/13 02:16:39;;;;;;;15.65;11.02;;;9.00;99.30;;;;;;5091567;28;20050;-55
2023/05/13 02:19:05;;;;;;;12.80;11.00;;;9.00;99.60;;;;;;5091638;28;20471;-54
2023/05/13 02:21:31;;;;;;;10.05;9.05;;;9.00;99.90;;;;;;5090709;28;20534;-55
2023/05/13 02:23:57;;;;;;;10.15;9.13;;;9.00;99.90;;;;;;5091791;28;20371;-54
2023/05/13 02:26:23;;;;;;;11.65;10.27;;;9.00;99.80;;;;;;5091677;28;20020;-55
2023/05/13 02:28:48;;;;;;;10.35;9.15;;;9.00;99.80;;;;;;5091309;28;20415;-56
2023/05/13 02:31:14;;;;;;;10.88;9.65;;;9.00;99.40;;;;;;5073530;28;20024;-56
2023/05/13 02:33:40;;;;;;;10.98;9.88;;;9.00;99.90;;;;;;5091758;28;20474;-54
2023/05/13 02:36:05;;;;;;;9.20;8.30;;;9.00;99.70;;;;;;5091336;28;20032;-53
2023/05/13 02:38:31;;;;;;;9.45;8.45;;;9.00;99.90;;;;;;5072910;28;20032;-54
2023/05/13 02:40:57;;;;;;;9.25;8.35;;;9.00;98.60;;;;;;5073430;28;20667;-56
2023/05/13 02:43:23;;;;;;;9.55;8.45;;;9.00;98.50;;;;;;5073248;28;20060;-56
2023/05/13 02:45:49;;;;;;;9.00;8.10;;;9.00;99.20;;;;;;5091337;28;20020;-54
2023/05/13 02:48:15;;;;;;;10.40;8.35;;;9.00;99.00;;;;;;5091402;28;20028;-55
2023/05/13 02:50:41;;;;;;;9.43;8.05;;;8.90;99.30;;;;;;5073194;28;20028;-57
2023/05/13 02:53:07;;;;;;;9.32;8.35;;;8.90;99.30;;;;;;5091259;28;20482;-56
2023/05/13 02:55:32;;;;;;;9.82;8.63;;;8.90;99.60;;;;;;5073315;28;20028;-55
2023/05/13 02:57:58;;;;;;;9.10;8.20;;;8.90;99.50;;;;;;5091438;28;20020;-54
2023/05/13 03:00:24;;;;;;;10.88;8.90;;;8.90;99.50;;;;;;5091434;28;20024;-55
2023/05/13 03:02:49;;;;;;;12.48;8.75;;;8.90;99.60;;;;;;5091222;28;20143;-55
2023/05/13 03:05:15;;;;;;;8.85;8.00;;;8.90;99.80;;;;;;5091207;28;20036;-56
2023/05/13 03:07:41;;;;;;;8.02;7.22;;;8.90;99.30;;;;;;5090859;28;20093;-57
2023/05/13 03:10:07;;;;;;;8.40;7.70;;;8.90;99.30;;;;;;5073396;28;20455;-57
2023/05/13 03:12:33;;;;;;;9.25;7.82;;;8.90;99.20;;;;;;5073469;28;20028;-57
2023/05/13 03:14:58;;;;;;;8.85;7.72;;;8.90;98.90;;;;;;5091246;28;20050;-58
2023/05/13 03:17:24;;;;;;;9.35;8.38;;;8.90;99.30;;;;;;5091255;28;20059;-56
2023/05/13 03:19:50;;;;;;;9.13;8.15;;;8.90;99.90;;;;;;5091165;28;20024;-57
2023/05/13 03:22:16;;;;;;;10.50;7.68;;;8.80;99.60;;;;;;5091286;28;20058;-58
2023/05/13 03:24:43;;;;;;;7.63;6.97;;;8.80;99.80;;;;;;5091173;28;20016;-55
2023/05/13 03:27:08;;;;;;;6.82;6.22;;;8.90;99.50;;;;;;5073060;28;20020;-56
2023/05/13 03:29:34;;;;;;;7.35;6.60;;;8.90;99.10;;;;;;5072729;28;20027;-54
2023/05/13 03:32:00;;;;;;;7.72;6.93;;;9.00;98.50;;;;;;5091573;28;20040;-54
2023/05/13 03:34:26;;;;;;;7.20;6.60;;;8.90;98.50;;;;;;5095044;28;20032;-55
2023/05/13 03:36:51;;;;;;;9.43;6.38;;;9.00;97.80;;;;;;5094898;28;20043;-54
2023/05/13 03:39:17;;;;;;;7.38;6.68;;;8.90;97.50;;;;;;5094859;28;20446;-55
2023/05/13 03:41:44;;;;;;;7.10;6.40;;;8.90;97.00;;;;;;5094409;28;20467;-57
2023/05/13 03:44:10;;;;;;;6.95;6.25;;;8.80;97.40;;;;;;5094336;28;20020;-54
2023/05/13 03:46:35;;;;;;;7.35;6.65;;;8.80;97.70;;;;;;5094537;28;20028;-57
2023/05/13 03:49:02;;;;;;;8.57;5.85;;;8.80;98.30;;;;;;5094545;28;20031;-55
2023/05/13 03:51:27;;;;;;;7.22;6.45;;;8.90;98.00;;;;;;5094435;28;20031;-56
2023/05/13 03:53:53;;;;;;;7.45;6.75;;;8.80;96.90;;;;;;5094462;28;20036;-56
2023/05/13 03:56:18;;;;;;;7.20;6.57;;;8.80;97.60;;;;;;5094101;28;20028;-56
2023/05/13 03:58:44;;;;;;;7.82;6.22;;;8.80;98.50;;;;;;5094313;28;20020;-57
2023/05/13 04:01:10;;;;;;;7.57;6.85;;;8.80;98.10;;;;;;5094479;28;20046;-55
2023/05/13 04:03:35;;;;;;;7.00;6.38;;;8.80;97.30;;;;;;5094192;28;20471;-55
2023/05/13 04:06:01;;;;;;;10.43;7.32;;;8.80;97.00;;;;;;5094358;28;20020;-57
2023/05/13 04:08:26;;;;;;;8.68;6.75;;;8.90;97.60;;;;;;5094284;28;20023;-57
2023/05/13 04:10:53;;;;;;;7.43;6.78;;;8.90;96.90;;;;;;5094077;28;20075;-57
2023/05/13 04:13:19;;;;;;;8.02;7.32;;;8.90;97.70;;;;;;5090819;28;20028;-55
2023/05/13 04:15:44;;;;;;;7.50;6.70;;;8.90;97.20;;;;;;5094171;28;20035;-54
2023/05/13 04:18:10;;;;;;;8.40;7.60;;;8.90;98.00;;;;;;5094119;28;20039;-56
2023/05/13 04:20:39;;;;;;;8.18;7.45;;;9.00;97.60;;;;;;5093912;28;20035;-57
2023/05/13 04:23:05;;;;;;;7.55;6.85;;;8.90;97.50;;;;;;5093965;28;20390;-56
2023/05/13 04:25:30;;;;;;;7.43;6.72;;;8.90;97.70;;;;;;5093927;28;20030;-55
2023/05/13 04:27:56;;;;;;;7.35;5.93;;;8.90;97.30;;;;;;5093869;28;20089;-56
2023/05/13 04:30:22;;;;;;;7.50;6.78;;;8.90;97.30;;;;;;5093602;28;20352;-56
2023/05/13 04:32:48;;;;;;;7.00;6.40;;;8.90;96.80;;;;;;5093630;28;20085;-55
2023/05/13 04:35:13;;;;;;;7.30;6.63;;;8.90;96.30;;;;;;5093507;28;20031;-57
2023/05/13 04:37:39;;;;;;;7.53;6.93;;;9.00;96.80;;;;;;5093641;28;20024;-55
2023/05/13 04:40:06;;;;;;;8.15;7.35;;;9.00;97.70;;;;;;5091938;28;20048;-54
2023/05/13 04:42:35;;;;;;;6.07;5.53;;;9.00;97.30;;;;;;5092933;28;20385;-55
2023/05/13 04:45:01;;;;;;;6.85;6.15;;;9.00;97.20;;;;;;5092505;28;20024;-58
2023/05/13 04:47:27;;;;;;;6.85;5.95;;;9.00;97.80;;;;;;5113388;28;20462;-57
2023/05/13 04:49:52;;;;;;;7.15;6.55;;;9.00;97.50;;;;;;5113728;28;20032;-54
2023/05/13 04:52:18;;;;;;;7.95;7.25;;;9.00;97.80;;;;;;5113756;28;20016;-58
2023/05/13 04:54:44;;;;;;;7.35;6.68;;;9.00;96.80;;;;;;5113455;28;20024;-57
2023/05/13 04:57:10;;;;;;;7.70;7.05;;;9.00;96.10;;;;;;5113644;28;20474;-56
2023/05/13 04:59:35;;;;;;;9.57;6.45;;;9.00;96.30;;;;;;5095172;28;20505;-56
2023/05/13 05:02:01;;;;;;;7.28;6.68;;;9.00;95.80;;;;;;5113408;28;20031;-56
2023/05/13 05:04:27;;;;;;;8.15;6.55;;;9.00;95.60;;;;;;5113691;28;20023;-55
2023/05/13 05:06:53;;;;;;;7.32;6.68;;;9.00;96.50;;;;;;5113355;28;20020;-56
2023/05/13 05:09:19;;;;;;;7.80;6.40;;;9.10;95.90;;;;;;5113490;28;20517;-56
2023/05/13 05:11:45;;;;;;;7.97;7.18;;;9.10;95.30;;;;;;5113287;28;20114;-55
2023/05/13 05:14:10;;;;;;;7.80;5.80;;;9.10;94.80;;;;;;5113489;28;20505;-56
2023/05/13 05:16:36;;;;;;;8.75;5.85;;;9.10;95.10;;;;;;5113232;28;20073;-57
2023/05/13 05:19:02;;;;;;;6.63;6.05;;;9.10;95.40;;;;;;5113378;28;20020;-56
2023/05/13 05:21:27;;;;;;;7.10;6.40;;;9.10;95.00;;;;;;5113543;28;20042;-57
2023/05/13 05:23:53;;;;;;;7.82;7.03;;;9.10;94.40;;;;;;5112986;28;20034;-55
2023/05/13 05:26:18;;;;;;;7.95;6.30;;;9.10;95.20;;;;;;5113094;28;20038;-56
2023/05/13 05:28:44;;;;;;;7.63;6.63;;;9.10;94.50;;;;;;5113251;28;20069;-53
2023/05/13 05:31:10;;;;;;;9.93;7.55;;;9.10;94.80;;;;;;5113091;28;20393;-56
2023/05/13 05:33:36;;;;;;;5.93;5.43;;;9.10;95.70;;;;;;5113325;28;20028;-56
2023/05/13 05:36:02;;;;;;;7.03;6.32;;;9.20;95.70;;;;;;5112882;28;20023;-58
2023/05/13 05:38:28;;;;;;;6.40;5.90;;;9.20;94.70;;;;;;5112786;28;21385;-57
2023/05/13 05:40:54;;;;;;;6.68;6.07;;;9.20;95.40;;;;;;5112479;28;20055;-56
2023/05/13 05:43:20;;;;;;;6.75;6.15;;;9.20;93.90;;;;;;5112659;28;20047;-56
2023/05/13 05:45:46;;;;;;;6.53;5.93;;;9.40;94.90;;;;;;5112183;28;20666;-58
2023/05/13 05:48:11;;;;;;;5.68;5.18;;;9.40;92.10;;;;;;5112646;28;20638;-55
2023/05/13 05:50:37;;;;;;;8.45;7.40;;;9.40;92.90;;;;;;5112543;28;20028;-55
2023/05/13 05:53:03;;;;;;;14.43;6.10;;;9.50;92.60;;;;;;5112380;28;20076;-57
2023/05/13 05:55:30;;;;;;;7.60;6.47;;;9.50;91.80;;;;;;5112181;28;20024;-56
2023/05/13 05:57:56;;;;;;;8.80;6.50;;;9.50;91.20;;;;;;5112616;28;20027;-57
2023/05/13 06:00:23;;;;;;;11.82;8.25;;;9.60;91.80;;;;;;5112302;28;20404;-58
2023/05/13 06:02:49;;;;;;;12.43;8.80;;;9.60;91.40;;;;;;5112624;28;20429;-57
2023/05/13 06:05:15;;;;;;;11.00;6.78;;;9.60;90.40;;;;;;5112160;28;20043;-57
2023/05/13 06:07:41;;;;;;;10.07;7.10;;;9.70;90.80;;;;;;5111852;28;20019;-61
2023/05/13 06:10:07;;;;;;;6.15;5.15;;;9.70;89.50;;;;;;5111743;28;20359;-59
2023/05/13 06:12:33;;;;;;;6.30;5.80;;;9.70;88.50;;;;;;5111922;28;20386;-58
2023/05/13 06:14:59;;;;;;;6.68;6.07;;;9.80;88.00;;;;;;5112017;28;20020;-59
2023/05/13 06:17:25;;;;;;;6.18;5.68;;;9.80;87.10;;;;;;5093957;28;20107;-54
2023/05/13 06:19:50;;;;;;;6.05;5.45;;;9.90;84.70;;;;;;5112109;28;20157;-58
2023/05/13 06:22:16;;;;;;;9.07;5.30;;;9.80;84.70;;;;;;5112055;28;20031;-58
2023/05/13 06:24:43;;;;;;;7.75;5.32;;;10.00;83.70;;;;;;5112051;28;20027;-59
2023/05/13 06:27:12;;;;;;;7.07;6.38;;;9.90;81.80;;;;;;5093480;28;20027;-57
2023/05/13 06:29:38;;;;;;;6.72;6.03;;;10.00;85.70;;;;;;5111988;28;20111;-57
2023/05/13 06:32:04;;;;;;;5.97;5.47;;;10.10;84.60;;;;;;5112086;28;20480;-55
2023/05/13 06:34:30;;;;;;;5.65;5.10;;;10.20;86.30;;;;;;5093853;28;20024;-54
2023/05/13 06:36:56;;;;;;;7.68;6.97;;;10.20;80.80;;;;;;5110005;28;20074;-57
2023/05/13 06:39:22;;;;;;;5.97;5.40;;;10.30;74.80;;;;;;5109253;28;20043;-53
2023/05/13 06:41:47;;;;;;;6.85;5.88;;;10.30;75.50;;;;;;5110731;28;20031;-55
2023/05/13 06:44:13;;;;;;;7.93;5.72;;;10.30;73.50;;;;;;5109729;28;20027;-56
2023/05/13 06:46:39;;;;;;;6.07;5.50;;;10.20;75.80;;;;;;5110459;28;20475;-56
2023/05/13 06:49:05;;;;;;;5.68;5.18;;;10.20;76.30;;;;;;5110664;28;20485;-56
2023/05/13 06:51:32;;;;;;;6.95;6.25;;;10.30;76.10;;;;;;5110399;28;20032;-58
2023/05/13 06:53:58;;;;;;;8.18;6.20;;;10.40;75.20;;;;;;5110425;28;20031;-55
2023/05/13 06:56:24;;;;;;;6.75;6.03;;;10.50;72.50;;;;;;5110553;28;20031;-56
2023/05/13 06:58:51;;;;;;;6.35;5.75;;;10.60;61.60;;;;;;5110582;28;20035;-56
2023/05/13 07:01:17;;;;;;;5.45;4.95;;;10.50;65.20;;;;;;5110460;28;20069;-57
2023/05/13 07:03:43;;;;;;;6.72;6.13;;;10.60;65.80;;;;;;5110475;28;20031;-54
2023/05/13 07:06:08;;;;;;;5.45;4.95;;;10.60;63.30;;;;;;5110368;28;20027;-57
2023/05/13 07:08:34;;;;;;;4.55;4.07;;;10.70;70.60;;;;;;5113484;28;20103;-57
2023/05/13 07:11:00;;;;;;;6.72;4.63;;;10.70;65.50;;;;;;5114571;28;20020;-58
2023/05/13 07:13:25;;;;;;;9.80;6.40;;;10.70;67.10;;;;;;5114606;28;20027;-57
2023/05/13 07:15:51;;;;;;;19.27;9.98;;;10.70;69.20;;;;;;5114376;28;20020;-57
2023/05/13 07:18:17;;;;;;;21.05;14.10;;;10.80;60.60;;;;;;5114518;28;20410;-54
2023/05/13 07:20:43;;;;;;;15.90;7.93;;;10.90;64.00;;;;;;5114112;28;20124;-56
2023/05/13 07:23:08;;;;;;;7.72;5.88;;;10.90;56.10;;;;;;5114208;28;20505;-56
2023/05/13 07:25:34;;;;;;;6.88;4.43;;;10.90;63.60;;;;;;5113941;28;20046;-55
2023/05/13 07:28:00;;;;;;;76.13;48.55;;;11.10;65.20;;;;;;5114133;28;20035;-54
2023/05/13 07:30:25;;;;;;;15.00;10.90;;;11.20;48.80;;;;;;5114498;28;20032;-53
2023/05/13 07:32:51;;;;;;;7.35;5.97;;;11.10;42.00;;;;;;5095747;28;20028;-53
2023/05/13 07:35:17;;;;;;;4.93;4.43;;;11.10;43.20;;;;;;5114134;28;20028;-56
2023/05/13 07:37:46;;;;;;;6.05;4.47;;;11.10;39.50;;;;;;5113627;28;20031;-55
2023/05/13 07:40:12;;;;;;;5.28;4.13;;;11.20;46.20;;;;;;5095564;28;20510;-55
2023/05/13 07:42:43;;;;;;;4.75;4.18;;;11.30;35.60;;;;;;5113802;28;20023;-54
2023/05/13 07:45:09;;;;;;;13.07;4.65;;;11.20;42.20;;;;;;5113624;28;20024;-56
2023/05/13 07:47:35;;;;;;;74.70;42.35;;;11.20;42.60;;;;;;5113731;28;20023;-56
2023/05/13 07:50:00;;;;;;;16.90;13.40;;;11.40;38.00;;;;;;5113757;28;20050;-54
2023/05/13 07:52:26;;;;;;;5.38;4.95;;;11.60;33.20;;;;;;5113694;28;20035;-55
2023/05/13 07:54:53;;;;;;;10.13;9.23;;;11.50;35.20;;;;;;5113335;28;20019;-57
2023/05/13 07:57:19;;;;;;;7.32;6.72;;;11.60;41.90;;;;;;5095414;28;20051;-57
2023/05/13 07:59:44;;;;;;;6.32;5.75;;;11.60;29.00;;;;;;5113538;28;20063;-54
2023/05/13 08:02:11;;;;;;;8.65;7.93;;;11.60;26.30;;;;;;5113196;28;20069;-55
2023/05/13 08:04:37;;;;;;;7.20;6.55;;;11.80;27.90;;;;;;5113248;28;20114;-57
2023/05/13 08:07:03;;;;;;;9.45;6.65;;;11.70;21.70;;;;;;5113464;28;20102;-53
2023/05/13 08:09:29;;;;;;;19.00;13.20;;;11.90;29.50;;;;;;5113256;28;20038;-58
2023/05/13 08:11:55;;;;;;;7.57;6.82;;;12.00;26.80;;;;;;5113303;28;20027;-55
2023/05/13 08:14:21;;;;;;;4.65;4.25;;;12.00;13.60;;;;;;5113368;28;20020;-55
2023/05/13 08:16:46;;;;;;;4.40;4.00;;;12.10;12.80;;;;;;5113230;28;20023;-55
2023/05/13 08:19:15;;;;;;;4.43;4.03;;;12.20;7.10;;;;;;5113312;28;20240;-55
2023/05/13 08:21:41;;;;;;;4.35;3.95;;;12.40;10.40;;;;;;5113051;28;20081;-57
2023/05/13 08:24:07;;;;;;;3.85;3.55;;;12.50;1.00;;;;;;5113071;28;20024;-52
2023/05/13 08:26:33;;;;;;;4.57;4.18;;;12.70;1.00;;;;;;5094885;28;20034;-56
2023/05/13 08:28:59;;;;;;;5.22;4.75;;;12.70;1.00;;;;;;5113067;28;20016;-56
2023/05/13 08:31:25;;;;;;;4.82;4.38;;;13.00;6.10;;;;;;5112935;28;20027;-56
2023/05/13 08:33:52;;;;;;;5.97;5.40;;;13.10;1.00;;;;;;5112690;28;20019;-57
2023/05/13 08:36:18;;;;;;;15.98;8.65;;;13.20;1.00;;;;;;5113954;28;20027;-58
2023/05/13 08:38:44;;;;;;;6.82;4.53;;;13.30;1.00;;;;;;5095688;28;20465;-58
2023/05/13 08:41:13;;;;;;;9.60;5.25;;;13.50;1.00;;;;;;5114290;28;20031;-58
2023/05/13 08:43:41;;;;;;;5.32;4.65;;;13.80;1.00;;;;;;5113974;28;20031;-57
2023/05/13 08:46:10;;;;;;;5.10;4.07;;;14.20;1.00;;;;;;5113497;28;20057;-57
2023/05/13 08:48:39;;;;;;;6.13;4.03;;;14.40;1.00;;;;;;5089247;28;20032;-59
2023/05/13 08:51:05;;;;;;;8.10;3.50;;;14.50;1.00;;;;;;5083865;28;20092;-58
2023/05/13 08:53:34;;;;;;;6.63;3.70;;;14.50;1.00;;;;;;5082078;28;20107;-56
2023/05/13 08:56:00;;;;;;;4.25;3.70;;;14.40;1.00;;;;;;5082383;28;22660;-58
2023/05/13 08:58:26;;;;;;;4.63;4.03;;;14.60;1.00;;;;;;5082858;28;20059;-59
2023/05/13 09:00:55;;;;;;;5.20;4.70;;;14.60;1.00;;;;;;5082111;28;20055;-57
2023/05/13 09:03:21;;;;;;;3.78;3.38;;;14.60;1.00;;;;;;5082082;28;20051;-58
2023/05/13 09:05:47;;;;;;;3.50;3.00;;;14.50;1.00;;;;;;5082224;28;20055;-58
2023/05/13 09:08:12;;;;;;;4.75;3.10;;;14.20;1.00;;;;;;5082671;28;20357;-58
2023/05/13 09:10:38;;;;;;;3.80;3.45;;;14.10;1.00;;;;;;5081337;28;20042;-58
2023/05/13 09:13:04;;;;;;;4.22;3.30;;;14.10;1.00;;;;;;5064086;28;20028;-58
2023/05/13 09:15:31;;;;;;;3.15;2.95;;;14.20;1.00;;;;;;5079434;28;20487;-55
2023/05/13 09:18:05;;;;;;;11.07;2.92;;;14.40;1.00;;;;;;5063821;28;20040;-59
2023/05/13 09:20:31;;;;;;;3.10;2.90;;;14.60;1.00;;;;;;5098008;28;20085;-58
2023/05/13 09:22:59;;;;;;;4.22;2.63;;;14.80;1.00;;;;;;5080241;28;20031;-56
2023/05/13 09:25:25;;;;;;;4.28;3.88;;;14.70;1.00;;;;;;5080732;28;20286;-57
2023/05/13 09:28:02;;;;;;;3.10;2.88;;;14.60;1.00;;;;;;5096223;28;20117;-56
2023/05/13 09:30:37;;;;;;;3.60;2.90;;;15.10;99.90;;;;;;5081433;28;20385;-57
2023/05/13 09:33:16;;;;;;;3.33;3.03;;;15.30;99.90;;;;;;5081375;28;20028;-54
2023/05/13 09:35:52;;;;;;;6.28;3.25;;;15.40;99.90;;;;;;5080578;28;20020;-55
2023/05/13 09:38:26;;;;;;;3.88;3.47;;;15.40;99.90;;;;;;5079611;28;20439;-58
2023/05/13 09:40:53;;;;;;;3.30;3.03;;;15.70;99.90;;;;;;5081095;28;20031;-58
2023/05/13 09:43:24;;;;;;;3.00;2.80;;;15.50;99.90;;;;;;5080508;28;20105;-59
2023/05/13 09:46:04;;;;;;;5.35;3.17;;;15.30;99.90;;;;;;5064823;28;20024;-58
2023/05/13 09:48:32;;;;;;;3.78;2.97;;;14.80;99.90;;;;;;5081214;28;20073;-57
2023/05/13 09:50:58;;;;;;;3.10;2.80;;;14.80;99.90;;;;;;5081990;28;20012;-58
2023/05/13 09:53:25;;;;;;;4.40;3.75;;;14.90;1.00;;;;;;5080960;28;20020;-57
2023/05/13 09:55:52;;;;;;;3.30;3.00;;;14.70;1.00;;;;;;5081191;28;20069;-58
2023/05/13 09:58:19;;;;;;;4.10;3.15;;;14.90;1.00;;;;;;5081226;28;20036;-58
2023/05/13 10:00:46;;;;;;;4.55;3.35;;;14.90;1.00;;;;;;5080924;28;20043;-57
2023/05/13 10:03:13;;;;;;;3.97;3.55;;;15.20;99.90;;;;;;5094539;28;20114;-56
2023/05/13 10:05:39;;;;;;;3.75;3.33;;;15.20;1.00;;;;;;5111792;28;20027;-56
2023/05/13 10:08:08;;;;;;;6.85;3.90;;;14.90;1.00;;;;;;5111619;28;20022;-57
2023/05/13 10:10:34;;;;;;;4.40;3.63;;;15.10;99.90;;;;;;5111094;28;20024;-57
2023/05/13 10:13:12;;;;;;;5.63;4.80;;;15.10;99.90;;;;;;5093374;28;20111;-55
2023/05/13 10:15:48;;;;;;;3.55;3.25;;;15.10;99.90;;;;;;5111622;28;20463;-58
2023/05/13 10:18:15;;;;;;;4.25;2.90;;;15.30;99.90;;;;;;5127270;27;20073;-55
2023/05/13 10:20:41;;;;;;;4.05;3.65;;;15.40;99.90;;;;;;5111767;28;20027;-56
2023/05/13 10:23:07;;;;;;;5.45;2.47;;;15.60;99.90;;;;;;5111936;28;20064;-56
2023/05/13 10:25:33;;;;;;;3.70;3.30;;;16.10;1.00;;;;;;5111014;28;20020;-57
2023/05/13 10:28:02;;;;;;;3.33;3.03;;;16.10;43.00;;;;;;5111752;28;20023;-57
2023/05/13 10:30:30;;;;;;;7.95;3.63;;;16.20;1.00;;;;;;5111314;28;20020;-56
2023/05/13 10:33:00;;;;;;;4.20;3.05;;;16.20;1.00;;;;;;5112360;28;20058;-57
2023/05/13 10:35:30;;;;;;;2.78;2.58;;;16.30;1.00;;;;;;5111755;28;20035;-59
2023/05/13 10:38:09;;;;;;;2.50;2.30;;;16.60;99.90;;;;;;5112242;28;20020;-58
2023/05/13 10:41:03;;;;;;;3.22;2.95;;;17.00;1.00;;;;;;5111258;28;20035;-58
2023/05/13 10:43:31;;;;;;;5.68;2.55;;;17.10;1.00;;;;;;5092483;28;20087;-58
2023/05/13 10:46:03;;;;;;;6.13;2.88;;;17.50;1.00;;;;;;5111638;28;20443;-57
2023/05/13 10:48:46;;;;;;;2.30;2.10;;;17.60;1.00;;;;;;5111412;28;20449;-57
2023/05/13 10:51:16;;;;;;;5.40;2.50;;;17.70;99.90;;;;;;5111425;28;20016;-58
2023/05/13 10:53:53;;;;;;;4.47;2.40;;;17.70;99.90;;;;;;5111294;28;20161;-56
2023/05/13 10:56:20;;;;;;;4.32;2.97;;;18.10;1.00;;;;;;5111390;28;20126;-58
2023/05/13 10:59:03;;;;;;;2.95;2.47;;;18.30;73.20;;;;;;5110717;28;20470;-58
2023/05/13 11:01:45;;;;;;;2.40;2.20;;;18.60;1.00;;;;;;5110505;28;20020;-57
2023/05/13 11:04:16;;;;;;;4.13;2.58;;;18.60;1.00;;;;;;5125601;28;20432;-59
2023/05/13 11:06:45;;;;;;;5.43;2.53;;;18.70;1.00;;;;;;5109538;28;20020;-59
2023/05/13 11:09:14;;;;;;;4.20;1.92;;;18.70;99.90;;;;;;5109763;28;20151;-58
2023/05/13 11:11:45;;;;;;;2.50;2.30;;;18.60;1.00;;;;;;5109976;28;20015;-57
2023/05/13 11:14:22;;;;;;;2.40;2.20;;;18.80;99.90;;;;;;5111336;28;20015;-58
2023/05/13 11:17:06;;;;;;;2.40;2.20;;;19.20;99.90;;;;;;5110257;28;20051;-57
2023/05/13 11:19:35;;;;;;;7.00;2.22;;;19.10;99.90;;;;;;5111002;28;20027;-55
2023/05/13 11:22:14;;;;;;;7.50;2.90;;;19.30;99.90;;;;;;5111499;28;20024;-57
2023/05/13 11:24:40;;;;;;;2.40;2.20;;;19.60;1.00;;;;;;5111585;28;20103;-58
2023/05/13 11:27:19;;;;;;;4.70;2.40;;;19.80;99.90;;;;;;5111014;28;20445;-56
2023/05/13 11:29:54;;;;;;;2.40;2.13;;;19.50;32.40;;;;;;5109994;28;20032;-56
2023/05/13 11:33:00;;;;;;;2.13;2.00;;;19.30;1.00;;;;;;5110060;28;20026;-57
2023/05/13 11:35:30;;;;;;;1.88;1.77;;;19.30;1.00;;;;;;5007438;28;20030;-59
2023/05/13 11:37:58;;;;;;;2.63;2.42;;;20.00;90.50;;;;;;5007119;28;20393;-58
2023/05/13 11:40:25;;;;;;;2.47;2.10;;;20.50;99.90;;;;;;5039647;28;20047;-55
2023/05/13 11:42:50;;;;;;;3.80;2.60;;;20.30;79.20;;;;;;5070051;28;20025;-57
2023/05/13 11:45:17;;;;;;;1.60;1.50;;;20.70;99.90;;;;;;5070500;28;20029;-58
2023/05/13 11:47:44;;;;;;;1.98;1.88;;;20.70;60.90;;;;;;5070627;28;20021;-58
2023/05/13 11:50:25;;;;;;;2.70;2.50;;;21.00;99.90;;;;;;5070739;28;20016;-58
2023/05/13 11:52:56;;;;;;;2.53;2.35;;;21.80;16.20;;;;;;5070722;28;20027;-58
2023/05/13 11:55:35;;;;;;;1.73;1.63;;;21.80;99.90;;;;;;5074738;28;20035;-58
2023/05/13 11:58:01;;;;;;;2.40;2.20;;;21.50;86.00;;;;;;5073081;28;20321;-55
2023/05/13 12:00:29;;;;;;;4.20;2.33;;;21.60;1.00;;;;;;5073456;28;20063;-57
2023/05/13 12:02:55;;;;;;;4.82;2.53;;;21.40;1.00;;;;;;5073634;28;20017;-54
2023/05/13 12:05:21;;;;;;;5.93;2.92;;;21.60;99.30;;;;;;5055845;28;20020;-57
2023/05/13 12:07:47;;;;;;;2.85;2.55;;;22.10;1.00;;;;;;5073835;28;20544;-58
2023/05/13 12:10:13;;;;;;;3.42;2.78;;;22.50;29.30;;;;;;5073851;28;20115;-58
2023/05/13 12:12:41;;;;;;;3.22;2.88;;;23.10;1.00;;;;;;5073585;28;20024;-58
2023/05/13 12:15:12;;;;;;;4.70;3.30;;;22.50;99.90;;;;;;5073312;28;20146;-58
2023/05/13 12:17:39;;;;;;;5.43;4.32;;;22.10;1.00;;;;;;5072701;28;20028;-58
2023/05/13 12:20:14;;;;;;;5.50;4.15;;;21.30;1.00;;;;;;5073769;28;20095;-58
2023/05/13 12:22:42;;;;;;;5.00;4.50;;;20.60;99.90;;;;;;5073511;28;20016;-57
2023/05/13 12:25:50;;;;;;;5.95;5.40;;;20.00;99.90;;;;;;5073466;28;20024;-55
2023/05/13 12:28:18;;;;;;;7.88;5.53;;;19.40;99.90;;;;;;5073335;28;20518;-54
2023/05/13 12:30:55;;;;;;;7.55;5.18;;;19.30;68.30;;;;;;5073437;28;20400;-57
2023/05/13 12:33:45;;;;;;;6.30;4.63;;;20.10;99.90;;;;;;5073615;28;20351;-58
2023/05/13 12:36:32;;;;;;;4.60;4.13;;;21.10;1.00;;;;;;5045804;28;20032;-57
2023/05/13 12:39:08;;;;;;;7.85;3.75;;;22.80;1.00;;;;;;5080045;28;20098;-59
2023/05/13 12:41:39;;;;;;;6.03;3.50;;;24.10;99.90;;;;;;5074274;28;20023;-58
2023/05/13 12:44:17;;;;;;;5.15;3.03;;;25.40;1.00;;;;;;5092091;28;20474;-58
2023/05/13 12:46:52;;;;;;;5.13;3.30;;;25.00;99.90;;;;;;5092434;28;20016;-59
2023/05/13 12:49:18;;;;;;;3.53;3.22;;;24.40;1.00;;;;;;5093281;28;20027;-58
2023/05/13 12:51:43;;;;;;;7.00;3.88;;;23.50;1.00;;;;;;5092874;28;20021;-55
2023/05/13 12:54:12;;;;;;;5.05;3.33;;;22.90;1.00;;;;;;5092687;28;20471;-57